Time;durP1;ratioP1;P1;durP2;ratioP2;P2;SDS_P1;SDS_P2;PMS_P1;PMS_P2;Temp;Humidity;BMP_temperature;BMP_pressure;BME280_temperature;BME280_humidity;BME280_pressure;Samples;Min_cycle;Max_cycle;Signal;HPM_P1;HPM_P2
2023/04/06 00:00:25;;;;;;;13.13;7.70;;;;;;;;;;5022641;28;20223;-66
2023/04/06 00:02:51;;;;;;;12.03;7.73;;;;;;;;;;5027079;28;20232;-67
2023/04/06 00:05:18;;;;;;;14.23;7.80;;;;;;;;;;5023688;28;20278;-67
2023/04/06 00:07:43;;;;;;;12.87;7.97;;;;;;;;;;5027304;28;20389;-67
2023/04/06 00:10:09;;;;;;;10.63;7.50;;;;;;;;;;5026701;28;20970;-67
2023/04/06 00:12:35;;;;;;;16.13;8.17;;;;;;;;;;5019485;28;20179;-67
2023/04/06 00:15:01;;;;;;;12.80;7.80;;;;;;;;;;5020650;28;20186;-67
2023/04/06 00:17:26;;;;;;;12.87;7.97;;;;;;;;;;5015281;28;20605;-68
2023/04/06 00:19:52;;;;;;;13.43;7.83;;;;;;;;;;5027521;28;20252;-67
2023/04/06 00:22:17;;;;;;;12.50;7.50;;;;;;;;;;5026599;28;20232;-67
2023/04/06 00:24:43;;;;;;;13.97;8.10;;;;;;;;;;5023052;28;20210;-67
2023/04/06 00:27:08;;;;;;;14.80;8.43;;;;;;;;;;5026581;28;20566;-67
2023/04/06 00:29:33;;;;;;;13.07;7.67;;;;;;;;;;5025346;28;20296;-67
2023/04/06 00:31:59;;;;;;;16.23;7.97;;;;;;;;;;5027981;28;20197;-68
2023/04/06 00:34:24;;;;;;;12.83;7.63;;;;;;;;;;5027236;28;20676;-67
2023/04/06 00:36:49;;;;;;;14.93;7.60;;;;;;;;;;5024649;28;20206;-68
2023/04/06 00:39:15;;;;;;;14.23;7.93;;;;;;;;;;5018542;28;20259;-67
2023/04/06 00:41:48;;;;;;;11.67;7.40;;;;;;;;;;5025381;28;20498;-68
2023/04/06 00:44:14;;;;;;;13.17;7.30;;;;;;;;;;5023931;28;20194;-68
2023/04/06 00:46:39;;;;;;;12.43;7.93;;;;;;;;;;5024441;28;20678;-68
2023/04/06 00:49:05;;;;;;;13.47;7.50;;;;;;;;;;5018975;28;20220;-67
2023/04/06 00:51:30;;;;;;;11.93;7.30;;;;;;;;;;5014090;28;20578;-68
2023/04/06 00:53:56;;;;;;;12.57;7.20;;;;;;;;;;5016173;28;20202;-68
2023/04/06 00:56:23;;;;;;;13.53;7.60;;;;;;;;;;5015304;28;20195;-68
2023/04/06 00:58:49;;;;;;;13.83;7.83;;;;;;;;;;5013551;28;20550;-68
2023/04/06 01:01:15;;;;;;;12.10;7.70;;;;;;;;;;5009537;28;20222;-67
2023/04/06 01:03:42;;;;;;;13.57;7.63;;;;;;;;;;5023049;28;20220;-67
2023/04/06 01:06:07;;;;;;;12.97;7.63;;;;;;;;;;5023605;28;20249;-68
2023/04/06 01:08:32;;;;;;;14.40;8.40;;;;;;;;;;5027108;28;20194;-68
2023/04/06 01:11:00;;;;;;;14.53;8.20;;;;;;;;;;5023221;28;20186;-68
2023/04/06 01:13:27;;;;;;;14.87;8.80;;;;;;;;;;5024191;28;20194;-68
2023/04/06 01:15:52;;;;;;;16.87;7.87;;;;;;;;;;5024494;28;20194;-68
2023/04/06 01:18:18;;;;;;;15.17;8.13;;;;;;;;;;5013701;28;20191;-68
2023/04/06 01:20:43;;;;;;;16.03;8.63;;;;;;;;;;5027874;28;20248;-68
2023/04/06 01:23:09;;;;;;;14.37;7.87;;;;;;;;;;5013061;28;20224;-68
2023/04/06 01:25:34;;;;;;;15.37;7.20;;;;;;;;;;5021073;28;20844;-68
2023/04/06 01:27:59;;;;;;;11.97;7.37;;;;;;;;;;5023153;28;20261;-68
2023/04/06 01:30:25;;;;;;;12.23;8.13;;;;;;;;;;5023275;28;20607;-67
2023/04/06 01:32:50;;;;;;;14.17;7.77;;;;;;;;;;5028471;28;20510;-68
2023/04/06 01:35:18;;;;;;;12.37;8.10;;;;;;;;;;5017375;28;20411;-67
2023/04/06 01:37:44;;;;;;;14.37;8.10;;;;;;;;;;5025685;28;20211;-66
2023/04/06 01:40:10;;;;;;;13.50;8.63;;;;;;;;;;5030541;28;20731;-68
2023/04/06 01:42:35;;;;;;;13.50;8.87;;;;;;;;;;5031321;28;20194;-66
2023/04/06 01:45:01;;;;;;;15.00;7.97;;;;;;;;;;5028410;28;20194;-66
2023/04/06 01:47:26;;;;;;;13.63;8.37;;;;;;;;;;5030376;28;20194;-67
2023/04/06 01:49:51;;;;;;;15.20;8.33;;;;;;;;;;5026636;28;20186;-67
2023/04/06 01:52:17;;;;;;;15.87;9.03;;;;;;;;;;5021477;28;20194;-68
2023/04/06 01:54:43;;;;;;;17.40;8.30;;;;;;;;;;5024975;28;20198;-67
2023/04/06 01:57:10;;;;;;;13.73;8.07;;;;;;;;;;5021014;28;20225;-68
2023/04/06 01:59:35;;;;;;;15.53;8.20;;;;;;;;;;5029908;28;20348;-68
2023/04/06 02:02:00;;;;;;;18.60;8.53;;;;;;;;;;5024568;28;20285;-68
2023/04/06 02:04:26;;;;;;;14.07;7.93;;;;;;;;;;5026670;28;20649;-68
2023/04/06 02:06:51;;;;;;;15.03;8.60;;;;;;;;;;5025227;28;20765;-68
2023/04/06 02:09:16;;;;;;;14.43;8.33;;;;;;;;;;5012931;28;20190;-67
2023/04/06 02:11:42;;;;;;;13.60;7.80;;;;;;;;;;5017133;28;20183;-67
2023/04/06 02:14:07;;;;;;;16.70;7.67;;;;;;;;;;5023726;28;20240;-67
2023/04/06 02:16:33;;;;;;;17.17;8.30;;;;;;;;;;5018288;28;20182;-67
2023/04/06 02:18:58;;;;;;;14.87;7.77;;;;;;;;;;5027457;28;20631;-69
2023/04/06 02:21:23;;;;;;;13.37;8.17;;;;;;;;;;5016894;28;20217;-68
2023/04/06 02:23:49;;;;;;;15.10;8.00;;;;;;;;;;5025433;28;20218;-67
2023/04/06 02:26:15;;;;;;;15.13;7.90;;;;;;;;;;5014509;28;20205;-68
2023/04/06 02:28:41;;;;;;;12.77;8.13;;;;;;;;;;5030630;28;20608;-68
2023/04/06 02:31:07;;;;;;;18.40;8.60;;;;;;;;;;5015392;28;20219;-67
2023/04/06 02:33:32;;;;;;;13.73;8.30;;;;;;;;;;5028943;28;20277;-67
2023/04/06 02:35:58;;;;;;;13.90;8.53;;;;;;;;;;5029858;28;20272;-67
2023/04/06 02:38:23;;;;;;;13.67;8.53;;;;;;;;;;5016858;28;20201;-67
2023/04/06 02:40:48;;;;;;;15.23;8.07;;;;;;;;;;5029638;28;20245;-67
2023/04/06 02:43:15;;;;;;;14.77;9.23;;;;;;;;;;5025437;28;20191;-67
2023/04/06 02:45:40;;;;;;;12.80;8.50;;;;;;;;;;5032973;28;20177;-68
2023/04/06 02:48:05;;;;;;;14.23;8.57;;;;;;;;;;5029479;28;20216;-68
2023/04/06 02:50:31;;;;;;;15.27;8.40;;;;;;;;;;5029894;28;20190;-67
2023/04/06 02:52:56;;;;;;;15.00;7.87;;;;;;;;;;5028499;28;20186;-68
2023/04/06 02:55:21;;;;;;;15.90;8.93;;;;;;;;;;5016538;28;20226;-68
2023/04/06 02:57:47;;;;;;;15.47;9.97;;;;;;;;;;5026053;28;20186;-68
2023/04/06 03:00:12;;;;;;;16.83;9.43;;;;;;;;;;5022895;28;20230;-68
2023/04/06 03:02:38;;;;;;;17.53;9.17;;;;;;;;;;5018488;28;20194;-67
2023/04/06 03:05:04;;;;;;;14.27;8.87;;;;;;;;;;5023664;28;20213;-67
2023/04/06 03:07:29;;;;;;;14.73;8.43;;;;;;;;;;5029330;28;20225;-67
2023/04/06 03:09:55;;;;;;;14.30;8.57;;;;;;;;;;5028211;28;20285;-68
2023/04/06 03:12:20;;;;;;;16.47;8.43;;;;;;;;;;5026247;28;20646;-67
2023/04/06 03:14:46;;;;;;;15.17;9.23;;;;;;;;;;5025712;28;20335;-67
2023/04/06 03:17:11;;;;;;;19.60;8.63;;;;;;;;;;5027278;28;20190;-68
2023/04/06 03:19:36;;;;;;;13.83;8.33;;;;;;;;;;5030210;28;20183;-67
2023/04/06 03:22:02;;;;;;;16.37;8.20;;;;;;;;;;5029562;28;20224;-67
2023/04/06 03:24:27;;;;;;;13.20;7.77;;;;;;;;;;5014108;28;20209;-68
2023/04/06 03:26:53;;;;;;;13.00;8.27;;;;;;;;;;5029218;28;20604;-67
2023/04/06 03:29:18;;;;;;;14.63;8.30;;;;;;;;;;5014259;28;20214;-67
2023/04/06 03:31:43;;;;;;;16.40;8.60;;;;;;;;;;5019120;28;20198;-68
2023/04/06 03:34:09;;;;;;;22.53;8.53;;;;;;;;;;5016554;28;20248;-68
2023/04/06 03:36:35;;;;;;;16.03;8.50;;;;;;;;;;5022370;28;20186;-67
2023/04/06 03:39:00;;;;;;;14.57;8.60;;;;;;;;;;5024177;28;20190;-68
2023/04/06 03:41:26;;;;;;;18.13;9.00;;;;;;;;;;5014334;28;20237;-67
2023/04/06 03:43:51;;;;;;;16.70;8.90;;;;;;;;;;5020180;28;20187;-68
2023/04/06 03:46:17;;;;;;;17.57;8.40;;;;;;;;;;5019419;28;20218;-68
2023/04/06 03:48:42;;;;;;;12.03;8.00;;;;;;;;;;5018085;28;20221;-68
2023/04/06 03:51:07;;;;;;;15.97;8.73;;;;;;;;;;5023797;28;20214;-68
2023/04/06 03:53:33;;;;;;;13.50;8.50;;;;;;;;;;5024411;28;20186;-67
2023/04/06 03:55:58;;;;;;;12.50;8.47;;;;;;;;;;5027207;28;20646;-68
2023/04/06 03:58:24;;;;;;;15.40;8.40;;;;;;;;;;5023305;28;20192;-68
2023/04/06 04:00:49;;;;;;;17.17;8.60;;;;;;;;;;5022463;28;20217;-68
2023/04/06 04:03:14;;;;;;;17.70;8.77;;;;;;;;;;5019188;28;20245;-67
2023/04/06 04:05:40;;;;;;;13.27;8.33;;;;;;;;;;5022066;28;20210;-67
2023/04/06 04:08:05;;;;;;;16.17;8.73;;;;;;;;;;5022137;28;20225;-67
2023/04/06 04:10:30;;;;;;;13.20;8.43;;;;;;;;;;5016745;28;20560;-68
2023/04/06 04:12:56;;;;;;;18.10;9.37;;;;;;;;;;5027838;28;20224;-68
2023/04/06 04:15:21;;;;;;;15.53;9.33;;;;;;;;;;5030638;28;20285;-68
2023/04/06 04:17:48;;;;;;;20.63;9.40;;;;;;;;;;5014364;28;20626;-68
2023/04/06 04:20:15;;;;;;;14.97;9.73;;;;;;;;;;5028079;28;20205;-68
2023/04/06 04:22:40;;;;;;;18.43;9.50;;;;;;;;;;5021833;28;20199;-68
2023/04/06 04:25:06;;;;;;;16.10;9.97;;;;;;;;;;5013004;28;20611;-68
2023/04/06 04:27:31;;;;;;;15.23;9.23;;;;;;;;;;5027658;28;20197;-68
2023/04/06 04:29:57;;;;;;;18.90;9.80;;;;;;;;;;5020085;28;20206;-68
2023/04/06 04:32:27;;;;;;;16.37;9.47;;;;;;;;;;5026873;28;20198;-67
2023/04/06 04:34:52;;;;;;;19.00;10.33;;;;;;;;;;5027323;28;20201;-68
2023/04/06 04:37:18;;;;;;;18.17;9.50;;;;;;;;;;5027972;28;20508;-68
2023/04/06 04:39:43;;;;;;;14.03;8.90;;;;;;;;;;5012790;28;20285;-67
2023/04/06 04:42:08;;;;;;;15.93;9.90;;;;;;;;;;5018856;28;20198;-68
2023/04/06 04:44:34;;;;;;;19.37;10.37;;;;;;;;;;5023338;28;20179;-68
2023/04/06 04:46:59;;;;;;;17.63;9.67;;;;;;;;;;5022652;28;20189;-68
2023/04/06 04:49:24;;;;;;;17.80;9.90;;;;;;;;;;5015317;28;20201;-68
2023/04/06 04:51:52;;;;;;;22.03;10.10;;;;;;;;;;5027423;28;20712;-68
2023/04/06 04:54:17;;;;;;;17.50;9.97;;;;;;;;;;5021925;28;20677;-68
2023/04/06 04:56:43;;;;;;;22.30;10.87;;;;;;;;;;5015881;28;20267;-68
2023/04/06 04:59:08;;;;;;;19.63;10.57;;;;;;;;;;5005299;28;20195;-68
2023/04/06 05:01:34;;;;;;;17.23;10.40;;;;;;;;;;5013496;28;20515;-68
2023/04/06 05:03:59;;;;;;;16.43;10.03;;;;;;;;;;5013943;28;20222;-68
2023/04/06 05:06:25;;;;;;;19.13;10.40;;;;;;;;;;5022909;28;20221;-68
2023/04/06 05:08:50;;;;;;;18.07;10.57;;;;;;;;;;5028315;28;20251;-69
2023/04/06 05:11:16;;;;;;;19.70;11.07;;;;;;;;;;5019884;28;20207;-68
2023/04/06 05:13:41;;;;;;;19.20;10.90;;;;;;;;;;5026486;28;20217;-68
2023/04/06 05:16:07;;;;;;;19.07;10.73;;;;;;;;;;5023695;28;20658;-68
2023/04/06 05:18:32;;;;;;;18.57;11.30;;;;;;;;;;5032135;28;20190;-68
2023/04/06 05:20:58;;;;;;;17.23;10.83;;;;;;;;;;5023390;28;20217;-68
2023/04/06 05:23:23;;;;;;;18.93;10.67;;;;;;;;;;5029133;28;20226;-68
2023/04/06 05:25:49;;;;;;;19.33;9.63;;;;;;;;;;5028162;28;20521;-70
2023/04/06 05:28:15;;;;;;;22.73;10.70;;;;;;;;;;5012892;28;20673;-68
2023/04/06 05:30:44;;;;;;;22.87;10.70;;;;;;;;;;5027607;28;20709;-68
2023/04/06 05:33:10;;;;;;;19.33;10.30;;;;;;;;;;5019525;28;20549;-68
2023/04/06 05:35:36;;;;;;;19.10;10.57;;;;;;;;;;5015475;28;20194;-67
2023/04/06 05:38:01;;;;;;;21.27;10.97;;;;;;;;;;5030151;28;20201;-68
2023/04/06 05:40:26;;;;;;;16.63;10.33;;;;;;;;;;5022812;28;20214;-68
2023/04/06 05:42:52;;;;;;;19.17;10.60;;;;;;;;;;5028296;28;20544;-68
2023/04/06 05:45:18;;;;;;;18.30;10.60;;;;;;;;;;5010147;28;20199;-68
2023/04/06 05:47:44;;;;;;;18.00;9.93;;;;;;;;;;5020225;28;20214;-67
2023/04/06 05:50:10;;;;;;;20.43;11.77;;;;;;;;;;5022223;28;20277;-68
2023/04/06 05:52:36;;;;;;;17.67;10.97;;;;;;;;;;5024103;28;20200;-68
2023/04/06 05:55:02;;;;;;;18.93;10.97;;;;;;;;;;5025753;28;20190;-67
2023/04/06 05:57:28;;;;;;;16.40;10.57;;;;;;;;;;5022565;28;20413;-67
2023/04/06 05:59:53;;;;;;;18.20;11.10;;;;;;;;;;5011400;28;20198;-68
2023/04/06 06:02:19;;;;;;;18.40;10.33;;;;;;;;;;5022755;28;20285;-67
2023/04/06 06:04:44;;;;;;;20.77;10.70;;;;;;;;;;5024069;28;20190;-68
2023/04/06 06:07:10;;;;;;;15.37;10.17;;;;;;;;;;5027762;28;20186;-67
2023/04/06 06:09:35;;;;;;;19.40;10.93;;;;;;;;;;5020983;28;20404;-67
2023/04/06 06:12:00;;;;;;;19.40;11.67;;;;;;;;;;5013777;28;20209;-68
2023/04/06 06:14:28;;;;;;;16.90;10.90;;;;;;;;;;5023110;28;20210;-68
2023/04/06 06:16:53;;;;;;;19.73;11.03;;;;;;;;;;5013242;28;20178;-68
2023/04/06 06:19:19;;;;;;;17.77;10.83;;;;;;;;;;5012501;28;20186;-67
2023/04/06 06:21:44;;;;;;;17.77;11.20;;;;;;;;;;5013001;28;20217;-67
2023/04/06 06:24:10;;;;;;;16.43;10.13;;;;;;;;;;5018124;28;20190;-68
2023/04/06 06:26:36;;;;;;;17.23;10.77;;;;;;;;;;5013753;28;20190;-67
2023/04/06 06:29:03;;;;;;;18.23;10.53;;;;;;;;;;5011722;28;20187;-68
2023/04/06 06:31:28;;;;;;;21.87;12.30;;;;;;;;;;5017675;28;20221;-69
2023/04/06 06:33:53;;;;;;;21.90;11.80;;;;;;;;;;5021330;28;20190;-68
2023/04/06 06:36:19;;;;;;;21.40;11.53;;;;;;;;;;5025320;28;20468;-67
2023/04/06 06:38:45;;;;;;;19.97;11.23;;;;;;;;;;5017484;28;20623;-68
2023/04/06 06:41:10;;;;;;;19.43;11.23;;;;;;;;;;5015390;28;20218;-68
2023/04/06 06:43:36;;;;;;;20.23;12.10;;;;;;;;;;5015245;28;20190;-70
2023/04/06 06:46:02;;;;;;;18.80;11.97;;;;;;;;;;5021367;28;20280;-68
2023/04/06 06:48:28;;;;;;;18.27;11.00;;;;;;;;;;5020585;28;20278;-69
2023/04/06 06:50:53;;;;;;;18.60;11.80;;;;;;;;;;5023586;28;20613;-68
2023/04/06 06:53:19;;;;;;;20.23;11.67;;;;;;;;;;5022911;28;20214;-68
2023/04/06 06:55:45;;;;;;;21.20;11.97;;;;;;;;;;5017392;28;20217;-68
2023/04/06 06:58:10;;;;;;;21.90;12.03;;;;;;;;;;5021370;28;20218;-68
2023/04/06 07:00:35;;;;;;;19.77;12.77;;;;;;;;;;5020536;28;20230;-68
2023/04/06 07:03:01;;;;;;;23.83;13.40;;;;;;;;;;5028786;28;20755;-68
2023/04/06 07:05:26;;;;;;;20.77;11.53;;;;;;;;;;5027470;28;20222;-68
2023/04/06 07:07:52;;;;;;;20.13;12.23;;;;;;;;;;5030161;28;20539;-68
2023/04/06 07:10:17;;;;;;;22.03;12.20;;;;;;;;;;5025333;28;20596;-68
2023/04/06 07:12:43;;;;;;;20.30;12.83;;;;;;;;;;5016805;28;20564;-68
2023/04/06 07:15:08;;;;;;;21.00;11.73;;;;;;;;;;5024226;28;20187;-68
2023/04/06 07:17:34;;;;;;;25.27;13.17;;;;;;;;;;5016517;28;20194;-68
2023/04/06 07:19:59;;;;;;;20.30;12.83;;;;;;;;;;5013332;28;20701;-67
2023/04/06 07:22:25;;;;;;;28.37;13.00;;;;;;;;;;5019117;28;20186;-68
2023/04/06 07:24:50;;;;;;;23.53;13.23;;;;;;;;;;5009293;28;20219;-68
2023/04/06 07:27:17;;;;;;;20.13;13.13;;;;;;;;;;5015080;28;20681;-67
2023/04/06 07:29:42;;;;;;;25.57;13.43;;;;;;;;;;5020764;28;20263;-68
2023/04/06 07:32:07;;;;;;;22.00;13.87;;;;;;;;;;5022265;28;20631;-68
2023/04/06 07:34:33;;;;;;;24.70;13.03;;;;;;;;;;5011218;28;20237;-69
2023/04/06 07:36:58;;;;;;;22.50;11.83;;;;;;;;;;5019246;28;20198;-67
2023/04/06 07:39:26;;;;;;;20.17;12.70;;;;;;;;;;5019148;28;20179;-68
2023/04/06 07:41:51;;;;;;;20.70;10.67;;;;;;;;;;5026172;28;20255;-68
2023/04/06 07:44:16;;;;;;;23.80;12.37;;;;;;;;;;5019035;28;20195;-68
2023/04/06 07:46:42;;;;;;;22.77;12.23;;;;;;;;;;5015452;28;20179;-68
2023/04/06 07:49:07;;;;;;;21.73;11.73;;;;;;;;;;5012319;28;20670;-68
2023/04/06 07:51:36;;;;;;;23.70;12.07;;;;;;;;;;5011892;28;20582;-68
2023/04/06 07:54:01;;;;;;;21.17;11.03;;;;;;;;;;5010146;28;20525;-68
2023/04/06 07:56:26;;;;;;;20.47;11.93;;;;;;;;;;5014544;28;20199;-68
2023/04/06 07:58:55;;;;;;;18.57;11.27;;;;;;;;;;5010697;28;20597;-68
2023/04/06 08:01:20;;;;;;;19.30;11.50;;;;;;;;;;5010928;28;20689;-67
2023/04/06 08:03:46;;;;;;;20.13;11.07;;;;;;;;;;5012803;28;20205;-68
2023/04/06 08:06:11;;;;;;;19.07;11.90;;;;;;;;;;5013660;28;20632;-68
2023/04/06 08:08:37;;;;;;;23.70;11.63;;;;;;;;;;5033871;28;20199;-66
2023/04/06 08:11:02;;;;;;;20.97;11.93;;;;;;;;;;5014434;28;20186;-67
2023/04/06 08:13:28;;;;;;;21.83;12.60;;;;;;;;;;5025989;28;20254;-67
2023/04/06 08:15:53;;;;;;;23.03;11.60;;;;;;;;;;5007777;28;20218;-67
2023/04/06 08:18:19;;;;;;;19.95;10.75;;;;;;;;;;5026515;28;20190;-67
2023/04/06 08:20:44;;;;;;;21.98;12.25;;;;;;;;;;5013281;28;20198;-67
2023/04/06 08:23:10;;;;;;;21.27;12.20;;;;;;;;;;5013863;28;20867;-67
2023/04/06 08:25:36;;;;;;;22.67;11.18;;;;;;;;;;5021472;28;20189;-67
2023/04/06 08:28:02;;;;;;;22.73;12.13;;;;;;;;;;5020368;28;20191;-67
2023/04/06 08:30:29;;;;;;;19.02;11.93;;;;;;;;;;5016326;28;20607;-67
2023/04/06 08:32:54;;;;;;;22.35;12.68;;;;;;;;;;5017851;28;20318;-68
2023/04/06 08:35:20;;;;;;;22.15;12.82;;;;;;;;;;5019256;28;20512;-67
2023/04/06 08:37:45;;;;;;;22.17;12.20;;;;;;;;;;5012862;28;20386;-67
2023/04/06 08:40:12;;;;;;;19.75;11.93;;;;;;;;;;5023662;28;20571;-67
2023/04/06 08:42:42;;;;;;;22.10;11.63;;;;;;;;;;5021813;28;20641;-68
2023/04/06 08:45:09;;;;;;;23.30;13.05;;;;;;;;;;5021284;28;20193;-69
2023/04/06 08:47:36;;;;;;;19.75;12.05;;;;;;;;;;5017656;28;20236;-68
2023/04/06 08:50:04;;;;;;;22.00;12.25;;;;;;;;;;5025536;28;20191;-68
2023/04/06 08:52:32;;;;;;;18.48;12.40;;;;;;;;;;5028233;28;20675;-68
2023/04/06 08:54:57;;;;;;;19.77;12.57;;;;;;;;;;5020739;28;20415;-68
2023/04/06 08:57:23;;;;;;;22.88;11.70;;;;;;;;;;5023546;28;20498;-67
2023/04/06 08:59:50;;;;;;;19.38;12.00;;;;;;;;;;5016269;28;20195;-68
2023/04/06 09:02:18;;;;;;;17.80;11.30;;;;;;;;;;5022134;28;20195;-67
2023/04/06 09:04:47;;;;;;;23.55;11.30;;;;;;;;;;5017549;28;20693;-66
2023/04/06 09:07:14;;;;;;;18.50;12.18;;;;;;;;;;5022510;28;20196;-68
2023/04/06 09:09:47;;;;;;;20.60;12.43;;;;;;;;;;5022456;28;20222;-67
2023/04/06 09:12:31;;;;;;;22.50;13.20;;;;;;;;;;5015074;28;20693;-67
2023/04/06 09:14:57;;;;;;;20.02;11.70;;;;;;;;;;5022386;28;20186;-68
2023/04/06 09:17:27;;;;;;;20.83;12.35;;;;;;;;;;5019120;28;20613;-67
2023/04/06 09:19:53;;;;;;;23.63;12.43;;;;;;;;;;5016623;28;20189;-67
2023/04/06 09:22:19;;;;;;;21.15;13.02;;;;;;;;;;5018511;28;20194;-67
2023/04/06 09:24:49;;;;;;;22.55;13.57;;;;;;;;;;5015099;28;20280;-68
2023/04/06 09:27:15;;;;;;;21.80;13.52;;;;;;;;;;5025209;28;20198;-67
2023/04/06 09:29:42;;;;;;;20.85;13.95;;;;;;;;;;5013096;28;20571;-67
2023/04/06 09:32:12;;;;;;;21.55;13.52;;;;;;;;;;5021932;28;20210;-67
2023/04/06 09:34:40;;;;;;;22.40;14.30;;;;;;;;;;5013964;28;20431;-67
2023/04/06 09:37:13;;;;;;;23.25;14.80;;;;;;;;;;5031121;28;20696;-68
2023/04/06 09:39:39;;;;;;;20.42;13.75;;;;;;;;;;5025223;28;20183;-67
2023/04/06 09:42:05;;;;;;;21.65;13.80;;;;;;;;;;5023145;28;20190;-68
2023/04/06 09:44:30;;;;;;;22.75;15.25;;;;;;;;;;5011295;28;20183;-67
2023/04/06 09:46:55;;;;;;;23.60;14.70;;;;;;;;;;5014692;28;20550;-69
2023/04/06 09:49:22;;;;;;;24.30;15.75;;;;;;;;;;5018702;28;20198;-68
2023/04/06 09:51:58;;;;;;;22.58;15.73;;;;;;;;;;5017835;28;20233;-68
2023/04/06 09:54:30;;;;;;;23.15;14.75;;;;;;;;;;5010888;28;20206;-67
2023/04/06 09:57:06;;;;;;;27.33;15.35;;;;;;;;;;5017186;28;20619;-66
2023/04/06 09:59:55;;;;;;;24.77;15.35;;;;;;;;;;5018124;28;20190;-67
2023/04/06 10:02:41;;;;;;;21.55;15.13;;;;;;;;;;5021960;28;20572;-66
2023/04/06 10:05:19;;;;;;;23.95;14.90;;;;;;;;;;5029027;28;20224;-67
2023/04/06 10:07:45;;;;;;;36.90;15.15;;;;;;;;;;5023846;28;20182;-66
2023/04/06 10:10:12;;;;;;;27.45;16.52;;;;;;;;;;5012900;28;20210;-66
2023/04/06 10:12:39;;;;;;;24.45;15.07;;;;;;;;;;5028538;28;20225;-65
2023/04/06 10:15:05;;;;;;;24.15;14.65;;;;;;;;;;5017290;28;20661;-67
2023/04/06 10:17:30;;;;;;;22.67;14.73;;;;;;;;;;5017717;28;20190;-67
2023/04/06 10:20:05;;;;;;;25.83;15.43;;;;;;;;;;5011976;28;20198;-67
2023/04/06 10:23:04;;;;;;;23.30;14.88;;;;;;;;;;5018475;28;20200;-66
2023/04/06 10:25:30;;;;;;;21.65;13.93;;;;;;;;;;5019671;28;20497;-67
2023/04/06 10:28:05;;;;;;;21.90;14.50;;;;;;;;;;5018246;28;20626;-66
2023/04/06 10:30:32;;;;;;;19.88;12.88;;;;;;;;;;5029807;28;20226;-66
2023/04/06 10:32:58;;;;;;;18.00;13.25;;;;;;;;;;5016866;28;20237;-67
2023/04/06 10:35:24;;;;;;;22.83;13.80;;;;;;;;;;5019508;28;20189;-66
2023/04/06 10:38:00;;;;;;;21.10;13.20;;;;;;;;;;5021371;28;20183;-67
2023/04/06 10:40:26;;;;;;;22.45;14.38;;;;;;;;;;5017984;28;20212;-66
2023/04/06 10:42:53;;;;;;;23.58;15.73;;;;;;;;;;5018266;28;20327;-66
2023/04/06 10:45:21;;;;;;;22.83;14.25;;;;;;;;;;4325620;28;10000830;-66
2023/04/06 10:47:46;;;;;;;21.92;14.82;;;;;;;;;;5017137;28;20182;-66
2023/04/06 10:50:15;;;;;;;21.27;13.98;;;;;;;;;;5025814;28;20662;-66
2023/04/06 10:52:40;;;;;;;24.25;15.90;;;;;;;;;;5017434;28;20228;-66
2023/04/06 10:55:08;;;;;;;24.88;15.15;;;;;;;;;;5020363;28;20233;-66
2023/04/06 10:57:33;;;;;;;23.73;14.73;;;;;;;;;;5021806;28;20190;-67
2023/04/06 10:59:59;;;;;;;25.27;15.27;;;;;;;;;;5017184;28;20670;-66
2023/04/06 11:02:25;;;;;;;28.77;16.33;;;;;;;;;;5015851;28;20201;-69
2023/04/06 11:04:57;;;;;;;23.02;15.60;;;;;;;;;;5009464;28;20195;-66
2023/04/06 11:07:26;;;;;;;25.25;16.02;;;;;;;;;;5008983;28;22180;-66
2023/04/06 11:09:52;;;;;;;25.23;16.02;;;;;;;;;;5024252;28;20241;-66
2023/04/06 11:12:27;;;;;;;26.15;15.88;;;;;;;;;;5023388;28;20255;-67
2023/04/06 11:15:05;;;;;;;27.23;16.27;;;;;;;;;;5024497;28;20217;-66
2023/04/06 11:17:33;;;;;;;22.70;15.35;;;;;;;;;;5013368;28;20208;-66
2023/04/06 11:19:59;;;;;;;23.13;15.68;;;;;;;;;;5015559;28;20214;-66
2023/04/06 11:22:25;;;;;;;28.13;16.30;;;;;;;;;;5003727;28;20194;-66
2023/04/06 11:24:51;;;;;;;24.08;14.25;;;;;;;;;;5021639;28;20249;-66
2023/04/06 11:27:18;;;;;;;24.45;15.73;;;;;;;;;;5023277;28;20201;-66
2023/04/06 11:29:45;;;;;;;23.92;15.18;;;;;;;;;;5023065;28;20315;-67
2023/04/06 11:32:19;;;;;;;25.15;15.70;;;;;;;;;;5012032;28;20198;-67
2023/04/06 11:34:47;;;;;;;22.13;15.18;;;;;;;;;;5022300;28;20545;-67
2023/04/06 11:37:12;;;;;;;22.17;14.35;;;;;;;;;;5024009;28;20229;-65
2023/04/06 11:39:50;;;;;;;23.10;16.00;;;;;;;;;;5019790;28;20620;-66
2023/04/06 11:42:29;;;;;;;22.67;14.63;;;;;;;;;;5026407;28;20201;-66
2023/04/06 11:44:58;;;;;;;24.48;15.20;;;;;;;;;;5020375;28;20297;-66
2023/04/06 11:47:34;;;;;;;26.42;15.10;;;;;;;;;;5020390;28;20194;-66
2023/04/06 11:50:13;;;;;;;27.58;15.73;;;;;;;;;;5012584;28;20260;-66
2023/04/06 11:52:42;;;;;;;20.98;14.63;;;;;;;;;;5025325;28;20267;-66
2023/04/06 11:55:13;;;;;;;26.08;15.30;;;;;;;;;;5017409;28;20237;-67
2023/04/06 11:57:39;;;;;;;20.90;14.45;;;;;;;;;;5016630;28;20495;-67
2023/04/06 12:00:06;;;;;;;22.15;15.45;;;;;;;;;;5017707;28;20234;-66
2023/04/06 12:02:32;;;;;;;22.67;14.65;;;;;;;;;;5014460;28;20483;-67
2023/04/06 12:04:57;;;;;;;22.83;15.15;;;;;;;;;;5025506;28;20609;-66
2023/04/06 12:07:22;;;;;;;26.27;15.27;;;;;;;;;;5025740;28;20202;-67
2023/04/06 12:09:48;;;;;;;23.23;14.75;;;;;;;;;;5013371;28;20218;-66
2023/04/06 12:12:13;;;;;;;25.33;15.90;;;;;;;;;;5011467;28;20202;-66
2023/04/06 12:14:38;;;;;;;25.52;16.13;;;;;;;;;;5025678;28;20194;-66
2023/04/06 12:17:04;;;;;;;26.92;17.95;;;;;;;;;;5024580;28;20186;-67
2023/04/06 12:19:29;;;;;;;24.05;17.05;;;;;;;;;;5025157;28;20277;-67
2023/04/06 12:21:56;;;;;;;25.90;17.20;;;;;;;;;;5014724;28;20465;-67
2023/04/06 12:24:21;;;;;;;30.05;16.75;;;;;;;;;;5017228;28;20439;-67
2023/04/06 12:26:47;;;;;;;25.80;16.23;;;;;;;;;;5018184;28;20205;-67
2023/04/06 12:29:13;;;;;;;27.83;17.10;;;;;;;;;;5019522;28;20336;-67
2023/04/06 12:31:40;;;;;;;26.08;16.67;;;;;;;;;;5017612;28;20692;-66
2023/04/06 12:34:06;;;;;;;28.00;17.42;;;;;;;;;;5016775;28;20548;-67
2023/04/06 12:36:32;;;;;;;26.58;17.23;;;;;;;;;;5007190;28;20221;-66
2023/04/06 12:38:58;;;;;;;24.02;17.17;;;;;;;;;;5021283;28;20281;-66
2023/04/06 12:41:24;;;;;;;26.95;17.30;;;;;;;;;;5017883;28;20237;-66
2023/04/06 12:43:50;;;;;;;25.10;16.92;;;;;;;;;;5023943;28;20537;-66
2023/04/06 12:46:16;;;;;;;24.58;17.45;;;;;;;;;;5025882;28;20205;-65
2023/04/06 12:48:42;;;;;;;24.20;16.67;;;;;;;;;;5021009;28;20534;-66
2023/04/06 12:51:07;;;;;;;24.45;17.35;;;;;;;;;;5012920;28;20193;-66
2023/04/06 12:53:34;;;;;;;27.35;17.15;;;;;;;;;;5023793;28;20197;-66
2023/04/06 12:56:00;;;;;;;26.00;16.92;;;;;;;;;;5011586;28;20554;-66
2023/04/06 12:58:29;;;;;;;24.70;15.80;;;;;;;;;;5015581;28;20704;-66
2023/04/06 13:00:57;;;;;;;24.63;16.77;;;;;;;;;;5018699;28;20214;-66
2023/04/06 13:03:22;;;;;;;27.30;17.38;;;;;;;;;;5022487;28;20260;-66
2023/04/06 13:05:51;;;;;;;25.83;17.58;;;;;;;;;;5020322;28;20193;-66
2023/04/06 13:08:19;;;;;;;25.65;16.73;;;;;;;;;;5014959;28;20194;-66
2023/04/06 13:10:50;;;;;;;24.17;15.63;;;;;;;;;;5018594;28;20361;-66
2023/04/06 13:13:17;;;;;;;25.48;14.55;;;;;;;;;;5013720;28;20689;-66
2023/04/06 13:15:42;;;;;;;22.95;14.25;;;;;;;;;;5013444;28;20189;-66
2023/04/06 13:18:08;;;;;;;19.60;11.98;;;;;;;;;;5016864;28;20190;-66
2023/04/06 13:20:34;;;;;;;19.88;12.18;;;;;;;;;;5013007;28;20206;-66
2023/04/06 13:22:59;;;;;;;20.30;12.30;;;;;;;;;;5014171;28;20272;-66
2023/04/06 13:25:25;;;;;;;16.38;11.35;;;;;;;;;;5019380;28;20218;-66
2023/04/06 13:27:50;;;;;;;16.90;11.50;;;;;;;;;;5024775;28;20182;-67
2023/04/06 13:30:16;;;;;;;17.55;11.93;;;;;;;;;;5022148;28;20234;-66
2023/04/06 13:32:41;;;;;;;17.90;11.77;;;;;;;;;;5024803;28;20570;-68
2023/04/06 13:35:07;;;;;;;17.42;12.40;;;;;;;;;;5028435;28;20202;-66
2023/04/06 13:37:33;;;;;;;21.50;12.98;;;;;;;;;;5025352;28;20196;-66
2023/04/06 13:39:59;;;;;;;21.45;12.60;;;;;;;;;;5022125;28;20186;-67
2023/04/06 13:42:24;;;;;;;25.85;14.13;;;;;;;;;;5024447;28;20660;-66
2023/04/06 13:44:50;;;;;;;18.65;12.52;;;;;;;;;;5015168;28;20187;-65
2023/04/06 13:47:17;;;;;;;23.13;13.25;;;;;;;;;;5016052;28;20222;-66
2023/04/06 13:49:42;;;;;;;17.63;12.32;;;;;;;;;;5025946;28;20222;-66
2023/04/06 13:52:09;;;;;;;18.73;11.65;;;;;;;;;;5021357;28;20260;-65
2023/04/06 13:54:35;;;;;;;18.70;10.85;;;;;;;;;;5024947;28;20187;-66
2023/04/06 13:57:00;;;;;;;16.95;11.38;;;;;;;;;;5026650;28;20194;-66
2023/04/06 13:59:32;;;;;;;16.33;10.82;;;;;;;;;;5021414;28;20190;-67
2023/04/06 14:01:57;;;;;;;16.05;10.52;;;;;;;;;;5016241;28;20972;-67
2023/04/06 14:04:22;;;;;;;19.10;11.32;;;;;;;;;;5019058;28;20229;-67
2023/04/06 14:06:48;;;;;;;18.02;11.77;;;;;;;;;;5016202;28;20561;-67
2023/04/06 14:09:13;;;;;;;18.10;11.65;;;;;;;;;;5019022;28;20195;-66
2023/04/06 14:11:38;;;;;;;18.42;12.50;;;;;;;;;;5030315;28;20548;-67
2023/04/06 14:14:04;;;;;;;18.73;12.60;;;;;;;;;;5013668;28;20214;-67
2023/04/06 14:16:29;;;;;;;19.02;12.35;;;;;;;;;;5016418;28;20214;-66